sensor_id;sensor_type;location;lat;lon;timestamp;pressure;altitude;pressure_sealevel;temperature;humidity
11448;BME280;43755;49.736;8.734;2022-07-09T00:00:03;99018.81;;;14.23;100.00
11448;BME280;43755;49.736;8.734;2022-07-09T00:02:05;99019.78;;;14.21;100.00
11448;BME280;43755;49.736;8.734;2022-07-09T00:04:06;99020.66;;;14.21;100.00
11448;BME280;43755;49.736;8.734;2022-07-09T00:06:08;99010.16;;;14.18;100.00
11448;BME280;43755;49.736;8.734;2022-07-09T00:08:09;99008.38;;;14.19;100.00
11448;BME280;43755;49.736;8.734;2022-07-09T00:10:12;99011.13;;;14.16;100.00
11448;BME280;43755;49.736;8.734;2022-07-09T00:12:13;99007.41;;;14.20;100.00
11448;BME280;43755;49.736;8.734;2022-07-09T00:14:15;99003.22;;;14.14;100.00
11448;BME280;43755;49.736;8.734;2022-07-09T00:16:16;99002.34;;;14.14;100.00
11448;BME280;43755;49.736;8.734;2022-07-09T00:18:18;99002.13;;;13.98;100.00
11448;BME280;43755;49.736;8.734;2022-07-09T00:20:20;99004.41;;;13.85;100.00
11448;BME280;43755;49.736;8.734;2022-07-09T00:22:22;99003.09;;;13.74;100.00
11448;BME280;43755;49.736;8.734;2022-07-09T00:24:23;98995.06;;;13.75;100.00
11448;BME280;43755;49.736;8.734;2022-07-09T00:26:26;98999.25;;;13.81;100.00
11448;BME280;43755;49.736;8.734;2022-07-09T00:28:27;98996.56;;;13.82;100.00
11448;BME280;43755;49.736;8.734;2022-07-09T00:30:29;99001.56;;;13.90;100.00
11448;BME280;43755;49.736;8.734;2022-07-09T00:32:30;98993.69;;;13.87;100.00
11448;BME280;43755;49.736;8.734;2022-07-09T00:34:32;98995.53;;;13.85;100.00
11448;BME280;43755;49.736;8.734;2022-07-09T00:36:33;98998.09;;;13.88;100.00
11448;BME280;43755;49.736;8.734;2022-07-09T00:38:35;98997.03;;;13.92;100.00
11448;BME280;43755;49.736;8.734;2022-07-09T00:40:37;98991.53;;;13.97;100.00
11448;BME280;43755;49.736;8.734;2022-07-09T00:42:40;98992.34;;;13.99;100.00
11448;BME280;43755;49.736;8.734;2022-07-09T00:44:41;98996.78;;;13.98;100.00
11448;BME280;43755;49.736;8.734;2022-07-09T00:46:42;98990.75;;;13.94;100.00
11448;BME280;43755;49.736;8.734;2022-07-09T00:48:44;98991.72;;;13.92;100.00
11448;BME280;43755;49.736;8.734;2022-07-09T00:50:46;98995.28;;;13.91;100.00
11448;BME280;43755;49.736;8.734;2022-07-09T00:52:48;98992.53;;;13.72;100.00
11448;BME280;43755;49.736;8.734;2022-07-09T00:54:50;98985.09;;;13.59;100.00
11448;BME280;43755;49.736;8.734;2022-07-09T00:56:52;98981.59;;;13.35;100.00
11448;BME280;43755;49.736;8.734;2022-07-09T00:58:55;98982.88;;;13.25;100.00
11448;BME280;43755;49.736;8.734;2022-07-09T01:00:57;98979.13;;;13.30;100.00
11448;BME280;43755;49.736;8.734;2022-07-09T01:02:59;98971.00;;;13.33;100.00
11448;BME280;43755;49.736;8.734;2022-07-09T01:05:00;98976.97;;;13.40;100.00
11448;BME280;43755;49.736;8.734;2022-07-09T01:07:02;98976.00;;;13.42;100.00
11448;BME280;43755;49.736;8.734;2022-07-09T01:09:04;98971.28;;;13.49;100.00
11448;BME280;43755;49.736;8.734;2022-07-09T01:11:05;98974.88;;;13.48;100.00
11448;BME280;43755;49.736;8.734;2022-07-09T01:13:07;98968.69;;;13.47;100.00
11448;BME280;43755;49.736;8.734;2022-07-09T01:15:10;98974.75;;;13.51;100.00
11448;BME280;43755;49.736;8.734;2022-07-09T01:17:11;98972.28;;;13.46;100.00
11448;BME280;43755;49.736;8.734;2022-07-09T01:19:13;98970.25;;;13.53;100.00
11448;BME280;43755;49.736;8.734;2022-07-09T01:21:16;98977.59;;;13.46;100.00
11448;BME280;43755;49.736;8.734;2022-07-09T01:23:17;98967.78;;;13.48;100.00
11448;BME280;43755;49.736;8.734;2022-07-09T01:25:27;98970.69;;;13.42;100.00
11448;BME280;43755;49.736;8.734;2022-07-09T01:27:32;98966.53;;;13.35;100.00
11448;BME280;43755;49.736;8.734;2022-07-09T01:29:33;98967.63;;;13.30;100.00
11448;BME280;43755;49.736;8.734;2022-07-09T01:31:35;98961.53;;;13.26;100.00
11448;BME280;43755;49.736;8.734;2022-07-09T01:33:36;98959.97;;;13.21;100.00
11448;BME280;43755;49.736;8.734;2022-07-09T01:35:38;98956.84;;;13.09;100.00
11448;BME280;43755;49.736;8.734;2022-07-09T01:37:41;98958.81;;;13.04;100.00
11448;BME280;43755;49.736;8.734;2022-07-09T01:39:42;98958.06;;;13.01;100.00
11448;BME280;43755;49.736;8.734;2022-07-09T01:41:51;98957.28;;;12.97;100.00
11448;BME280;43755;49.736;8.734;2022-07-09T01:43:52;98952.22;;;12.91;100.00
11448;BME280;43755;49.736;8.734;2022-07-09T01:45:54;98945.94;;;12.94;100.00
11448;BME280;43755;49.736;8.734;2022-07-09T01:47:55;98947.75;;;12.92;100.00
11448;BME280;43755;49.736;8.734;2022-07-09T01:49:57;98949.78;;;12.85;100.00
11448;BME280;43755;49.736;8.734;2022-07-09T01:51:58;98940.38;;;12.77;100.00
11448;BME280;43755;49.736;8.734;2022-07-09T01:54:01;98942.38;;;12.70;100.00
11448;BME280;43755;49.736;8.734;2022-07-09T01:56:05;98942.69;;;12.61;100.00
11448;BME280;43755;49.736;8.734;2022-07-09T01:58:06;98945.97;;;12.44;100.00
11448;BME280;43755;49.736;8.734;2022-07-09T02:00:09;98941.44;;;12.48;100.00
11448;BME280;43755;49.736;8.734;2022-07-09T02:02:11;98941.34;;;12.49;100.00
11448;BME280;43755;49.736;8.734;2022-07-09T02:04:12;98944.97;;;12.48;100.00
11448;BME280;43755;49.736;8.734;2022-07-09T02:06:14;98943.53;;;12.38;100.00
11448;BME280;43755;49.736;8.734;2022-07-09T02:08:16;98947.34;;;12.31;100.00
11448;BME280;43755;49.736;8.734;2022-07-09T02:10:18;98945.44;;;12.35;100.00
11448;BME280;43755;49.736;8.734;2022-07-09T02:12:20;98936.56;;;12.36;100.00
11448;BME280;43755;49.736;8.734;2022-07-09T02:14:22;98937.41;;;12.36;100.00
11448;BME280;43755;49.736;8.734;2022-07-09T02:16:23;98935.44;;;12.43;100.00
11448;BME280;43755;49.736;8.734;2022-07-09T02:18:25;98932.47;;;12.50;100.00
11448;BME280;43755;49.736;8.734;2022-07-09T02:20:26;98933.66;;;12.66;100.00
11448;BME280;43755;49.736;8.734;2022-07-09T02:22:27;98920.91;;;12.76;100.00
11448;BME280;43755;49.736;8.734;2022-07-09T02:24:29;98925.13;;;12.82;100.00
11448;BME280;43755;49.736;8.734;2022-07-09T02:26:32;98930.91;;;12.93;100.00
11448;BME280;43755;49.736;8.734;2022-07-09T02:28:33;98927.38;;;12.92;100.00
11448;BME280;43755;49.736;8.734;2022-07-09T02:30:35;98931.03;;;12.90;100.00
11448;BME280;43755;49.736;8.734;2022-07-09T02:32:37;98924.91;;;12.88;100.00
11448;BME280;43755;49.736;8.734;2022-07-09T02:34:39;98927.75;;;12.83;100.00
11448;BME280;43755;49.736;8.734;2022-07-09T02:36:40;98929.34;;;12.87;100.00
11448;BME280;43755;49.736;8.734;2022-07-09T02:38:42;98922.31;;;12.86;100.00
11448;BME280;43755;49.736;8.734;2022-07-09T02:40:43;98924.00;;;12.89;100.00
11448;BME280;43755;49.736;8.734;2022-07-09T02:42:46;98932.00;;;12.87;100.00
11448;BME280;43755;49.736;8.734;2022-07-09T02:44:48;98924.31;;;12.80;100.00
11448;BME280;43755;49.736;8.734;2022-07-09T02:46:49;98927.06;;;12.78;100.00
11448;BME280;43755;49.736;8.734;2022-07-09T02:48:51;98921.56;;;12.83;100.00
11448;BME280;43755;49.736;8.734;2022-07-09T02:50:52;98923.13;;;12.88;100.00
11448;BME280;43755;49.736;8.734;2022-07-09T02:52:54;98928.53;;;12.85;100.00
11448;BME280;43755;49.736;8.734;2022-07-09T02:54:55;98926.00;;;12.82;100.00
11448;BME280;43755;49.736;8.734;2022-07-09T02:56:57;98928.25;;;12.69;100.00
11448;BME280;43755;49.736;8.734;2022-07-09T02:59:00;98937.63;;;12.55;100.00
11448;BME280;43755;49.736;8.734;2022-07-09T03:01:03;98930.75;;;12.49;100.00
11448;BME280;43755;49.736;8.734;2022-07-09T03:03:05;98925.66;;;12.43;100.00
11448;BME280;43755;49.736;8.734;2022-07-09T03:05:07;98927.28;;;12.47;100.00
11448;BME280;43755;49.736;8.734;2022-07-09T03:07:09;98924.63;;;12.47;100.00
11448;BME280;43755;49.736;8.734;2022-07-09T03:09:11;98925.50;;;12.48;100.00
11448;BME280;43755;49.736;8.734;2022-07-09T03:11:13;98918.19;;;12.54;100.00
11448;BME280;43755;49.736;8.734;2022-07-09T03:13:14;98920.91;;;12.53;100.00
11448;BME280;43755;49.736;8.734;2022-07-09T03:15:17;98922.47;;;12.58;100.00
11448;BME280;43755;49.736;8.734;2022-07-09T03:17:19;98919.59;;;12.64;100.00
11448;BME280;43755;49.736;8.734;2022-07-09T03:19:20;98921.41;;;12.62;100.00
11448;BME280;43755;49.736;8.734;2022-07-09T03:21:22;98913.41;;;12.64;100.00
11448;BME280;43755;49.736;8.734;2022-07-09T03:23:23;98914.06;;;12.70;100.00
11448;BME280;43755;49.736;8.734;2022-07-09T03:25:25;98915.78;;;12.71;100.00
11448;BME280;43755;49.736;8.734;2022-07-09T03:27:26;98921.09;;;12.71;100.00
11448;BME280;43755;49.736;8.734;2022-07-09T03:29:27;98918.44;;;12.71;100.00
11448;BME280;43755;49.736;8.734;2022-07-09T03:31:30;98911.25;;;12.73;100.00
11448;BME280;43755;49.736;8.734;2022-07-09T03:33:32;98918.38;;;12.73;100.00
11448;BME280;43755;49.736;8.734;2022-07-09T03:35:33;98914.78;;;12.74;100.00
11448;BME280;43755;49.736;8.734;2022-07-09T03:37:35;98910.31;;;12.76;100.00
11448;BME280;43755;49.736;8.734;2022-07-09T03:39:36;98912.91;;;12.78;100.00
11448;BME280;43755;49.736;8.734;2022-07-09T03:41:37;98912.72;;;12.82;100.00
11448;BME280;43755;49.736;8.734;2022-07-09T03:43:39;98917.03;;;12.85;100.00
11448;BME280;43755;49.736;8.734;2022-07-09T03:45:40;98907.28;;;12.85;100.00
11448;BME280;43755;49.736;8.734;2022-07-09T03:47:43;98905.31;;;12.90;100.00
11448;BME280;43755;49.736;8.734;2022-07-09T03:49:45;98908.75;;;12.94;100.00
11448;BME280;43755;49.736;8.734;2022-07-09T03:51:47;98905.91;;;12.98;100.00
11448;BME280;43755;49.736;8.734;2022-07-09T03:53:48;98911.91;;;13.03;100.00
11448;BME280;43755;49.736;8.734;2022-07-09T03:55:49;98908.38;;;13.03;100.00
11448;BME280;43755;49.736;8.734;2022-07-09T03:57:51;98910.03;;;13.07;100.00
11448;BME280;43755;49.736;8.734;2022-07-09T03:59:52;98909.81;;;13.13;100.00
11448;BME280;43755;49.736;8.734;2022-07-09T04:01:54;98917.59;;;13.18;100.00
11448;BME280;43755;49.736;8.734;2022-07-09T04:03:56;98909.44;;;13.22;100.00
11448;BME280;43755;49.736;8.734;2022-07-09T04:05:59;98913.84;;;13.23;100.00
11448;BME280;43755;49.736;8.734;2022-07-09T04:08:00;98918.00;;;13.30;100.00
11448;BME280;43755;49.736;8.734;2022-07-09T04:10:02;98917.63;;;13.39;100.00
11448;BME280;43755;49.736;8.734;2022-07-09T04:12:04;98910.22;;;13.47;100.00
11448;BME280;43755;49.736;8.734;2022-07-09T04:14:06;98914.47;;;13.51;100.00
11448;BME280;43755;49.736;8.734;2022-07-09T04:16:07;98913.25;;;13.60;100.00
11448;BME280;43755;49.736;8.734;2022-07-09T04:18:09;98914.72;;;13.67;100.00
11448;BME280;43755;49.736;8.734;2022-07-09T04:20:12;98918.00;;;13.74;100.00
11448;BME280;43755;49.736;8.734;2022-07-09T04:22:13;98914.16;;;13.81;100.00
11448;BME280;43755;49.736;8.734;2022-07-09T04:24:15;98911.38;;;13.84;100.00
11448;BME280;43755;49.736;8.734;2022-07-09T04:26:17;98910.19;;;13.91;100.00
11448;BME280;43755;49.736;8.734;2022-07-09T04:28:19;98912.66;;;13.96;100.00
11448;BME280;43755;49.736;8.734;2022-07-09T04:30:21;98913.19;;;14.04;100.00
11448;BME280;43755;49.736;8.734;2022-07-09T04:32:22;98919.06;;;14.12;100.00
11448;BME280;43755;49.736;8.734;2022-07-09T04:34:24;98914.09;;;14.24;100.00
11448;BME280;43755;49.736;8.734;2022-07-09T04:36:27;98919.25;;;14.27;100.00
11448;BME280;43755;49.736;8.734;2022-07-09T04:38:29;98909.16;;;14.35;100.00
11448;BME280;43755;49.736;8.734;2022-07-09T04:40:31;98909.72;;;14.44;100.00
11448;BME280;43755;49.736;8.734;2022-07-09T04:42:32;98907.53;;;14.53;100.00
11448;BME280;43755;49.736;8.734;2022-07-09T04:44:34;98909.50;;;14.68;100.00
11448;BME280;43755;49.736;8.734;2022-07-09T04:46:35;98916.28;;;14.75;100.00
11448;BME280;43755;49.736;8.734;2022-07-09T04:48:37;98917.69;;;14.84;100.00
11448;BME280;43755;49.736;8.734;2022-07-09T04:50:38;98909.97;;;14.97;100.00
11448;BME280;43755;49.736;8.734;2022-07-09T04:52:41;98909.19;;;15.13;100.00
11448;BME280;43755;49.736;8.734;2022-07-09T04:54:42;98910.50;;;15.24;100.00
11448;BME280;43755;49.736;8.734;2022-07-09T04:56:44;98912.59;;;15.54;100.00
11448;BME280;43755;49.736;8.734;2022-07-09T04:58:45;98908.25;;;15.88;100.00
11448;BME280;43755;49.736;8.734;2022-07-09T05:00:52;98905.63;;;16.22;100.00
11448;BME280;43755;49.736;8.734;2022-07-09T05:02:54;98901.69;;;16.64;100.00
11448;BME280;43755;49.736;8.734;2022-07-09T05:04:55;98898.72;;;17.34;100.00
11448;BME280;43755;49.736;8.734;2022-07-09T05:06:57;98904.69;;;18.46;100.00
11448;BME280;43755;49.736;8.734;2022-07-09T05:09:00;98896.50;;;19.48;97.35
11448;BME280;43755;49.736;8.734;2022-07-09T05:11:01;98898.03;;;20.06;88.86
11448;BME280;43755;49.736;8.734;2022-07-09T05:13:03;98902.25;;;20.62;86.15
11448;BME280;43755;49.736;8.734;2022-07-09T05:15:05;98904.50;;;21.06;81.09
11448;BME280;43755;49.736;8.734;2022-07-09T05:17:07;98909.25;;;21.03;82.81
11448;BME280;43755;49.736;8.734;2022-07-09T05:19:08;98900.53;;;20.74;82.28
11448;BME280;43755;49.736;8.734;2022-07-09T05:21:10;98908.19;;;20.55;84.24
11448;BME280;43755;49.736;8.734;2022-07-09T05:23:11;98903.84;;;20.52;85.36
11448;BME280;43755;49.736;8.734;2022-07-09T05:25:14;98901.94;;;20.54;85.24
11448;BME280;43755;49.736;8.734;2022-07-09T05:27:15;98901.81;;;20.43;85.70
11448;BME280;43755;49.736;8.734;2022-07-09T05:29:17;98902.91;;;20.26;86.71
11448;BME280;43755;49.736;8.734;2022-07-09T05:31:18;98902.25;;;20.23;88.25
11448;BME280;43755;49.736;8.734;2022-07-09T05:33:20;98904.19;;;20.21;89.91
11448;BME280;43755;49.736;8.734;2022-07-09T05:35:22;98894.16;;;20.10;91.78
11448;BME280;43755;49.736;8.734;2022-07-09T05:37:23;98897.06;;;20.07;92.67
11448;BME280;43755;49.736;8.734;2022-07-09T05:39:25;98899.75;;;20.07;91.42
11448;BME280;43755;49.736;8.734;2022-07-09T05:41:27;98891.84;;;19.91;92.40
11448;BME280;43755;49.736;8.734;2022-07-09T05:43:29;98890.97;;;19.78;93.38
11448;BME280;43755;49.736;8.734;2022-07-09T05:45:30;98892.91;;;19.62;95.47
11448;BME280;43755;49.736;8.734;2022-07-09T05:47:32;98894.69;;;19.49;96.36
11448;BME280;43755;49.736;8.734;2022-07-09T05:49:33;98887.47;;;19.35;97.36
11448;BME280;43755;49.736;8.734;2022-07-09T05:51:35;98894.09;;;19.30;99.26
11448;BME280;43755;49.736;8.734;2022-07-09T05:53:37;98894.19;;;19.28;100.00
11448;BME280;43755;49.736;8.734;2022-07-09T05:55:38;98898.41;;;19.32;99.91
11448;BME280;43755;49.736;8.734;2022-07-09T05:57:41;98893.31;;;19.42;99.23
11448;BME280;43755;49.736;8.734;2022-07-09T05:59:42;98897.53;;;19.60;100.00
11448;BME280;43755;49.736;8.734;2022-07-09T06:01:44;98892.78;;;19.78;100.00
11448;BME280;43755;49.736;8.734;2022-07-09T06:03:45;98894.50;;;19.79;100.00
11448;BME280;43755;49.736;8.734;2022-07-09T06:05:47;98901.31;;;19.70;97.66
11448;BME280;43755;49.736;8.734;2022-07-09T06:07:48;98895.78;;;19.73;94.77
11448;BME280;43755;49.736;8.734;2022-07-09T06:09:50;98889.00;;;19.80;93.75
11448;BME280;43755;49.736;8.734;2022-07-09T06:11:51;98897.22;;;19.91;94.60
11448;BME280;43755;49.736;8.734;2022-07-09T06:13:54;98896.06;;;19.95;91.42
11448;BME280;43755;49.736;8.734;2022-07-09T06:15:56;98894.44;;;19.93;88.75
11448;BME280;43755;49.736;8.734;2022-07-09T06:17:57;98898.75;;;19.95;90.13
11448;BME280;43755;49.736;8.734;2022-07-09T06:19:59;98894.13;;;19.97;91.57
11448;BME280;43755;49.736;8.734;2022-07-09T06:22:00;98894.56;;;20.04;92.19
11448;BME280;43755;49.736;8.734;2022-07-09T06:24:02;98903.81;;;20.00;94.21
11448;BME280;43755;49.736;8.734;2022-07-09T06:26:04;98902.09;;;19.99;93.87
11448;BME280;43755;49.736;8.734;2022-07-09T06:28:06;98898.75;;;19.95;90.96
11448;BME280;43755;49.736;8.734;2022-07-09T06:30:09;98902.53;;;20.06;91.91
11448;BME280;43755;49.736;8.734;2022-07-09T06:32:10;98908.78;;;20.06;91.55
11448;BME280;43755;49.736;8.734;2022-07-09T06:34:11;98905.22;;;20.06;88.93
11448;BME280;43755;49.736;8.734;2022-07-09T06:36:13;98905.59;;;20.14;91.54
11448;BME280;43755;49.736;8.734;2022-07-09T06:38:14;98907.00;;;20.19;92.58
11448;BME280;43755;49.736;8.734;2022-07-09T06:40:16;98912.44;;;20.32;89.85
11448;BME280;43755;49.736;8.734;2022-07-09T06:42:17;98909.13;;;20.27;89.57
11448;BME280;43755;49.736;8.734;2022-07-09T06:44:19;98908.81;;;20.19;85.87
11448;BME280;43755;49.736;8.734;2022-07-09T06:46:21;98900.31;;;20.12;87.63
11448;BME280;43755;49.736;8.734;2022-07-09T06:48:23;98909.47;;;20.22;86.27
11448;BME280;43755;49.736;8.734;2022-07-09T06:50:24;98911.03;;;20.39;84.34
11448;BME280;43755;49.736;8.734;2022-07-09T06:52:26;98908.06;;;20.43;86.46
11448;BME280;43755;49.736;8.734;2022-07-09T06:54:27;98913.94;;;20.36;83.42
11448;BME280;43755;49.736;8.734;2022-07-09T06:56:29;98915.44;;;20.40;86.32
11448;BME280;43755;49.736;8.734;2022-07-09T06:58:30;98911.34;;;20.34;87.56
11448;BME280;43755;49.736;8.734;2022-07-09T07:00:32;98918.06;;;20.27;85.79
11448;BME280;43755;49.736;8.734;2022-07-09T07:02:35;98913.53;;;20.42;85.98
11448;BME280;43755;49.736;8.734;2022-07-09T07:04:36;98921.91;;;20.37;84.56
11448;BME280;43755;49.736;8.734;2022-07-09T07:06:38;98917.59;;;20.35;85.84
11448;BME280;43755;49.736;8.734;2022-07-09T07:08:39;98925.88;;;20.32;84.20
11448;BME280;43755;49.736;8.734;2022-07-09T07:10:41;98917.84;;;20.57;82.18
11448;BME280;43755;49.736;8.734;2022-07-09T07:12:42;98923.66;;;20.76;82.64
11448;BME280;43755;49.736;8.734;2022-07-09T07:14:44;98920.88;;;20.91;81.60
11448;BME280;43755;49.736;8.734;2022-07-09T07:16:45;98918.31;;;20.89;85.81
11448;BME280;43755;49.736;8.734;2022-07-09T07:18:48;98915.38;;;20.92;82.83
11448;BME280;43755;49.736;8.734;2022-07-09T07:20:49;98915.81;;;20.86;83.58
11448;BME280;43755;49.736;8.734;2022-07-09T07:22:51;98916.81;;;20.85;84.62
11448;BME280;43755;49.736;8.734;2022-07-09T07:24:52;98918.81;;;21.07;83.54
11448;BME280;43755;49.736;8.734;2022-07-09T07:26:54;98916.03;;;20.96;85.38
11448;BME280;43755;49.736;8.734;2022-07-09T07:28:56;98910.75;;;20.94;79.25
11448;BME280;43755;49.736;8.734;2022-07-09T07:30:58;98914.22;;;20.96;79.62
11448;BME280;43755;49.736;8.734;2022-07-09T07:33:00;98911.81;;;20.92;80.98
11448;BME280;43755;49.736;8.734;2022-07-09T07:35:03;98916.03;;;20.96;78.50
11448;BME280;43755;49.736;8.734;2022-07-09T07:37:05;98912.47;;;20.82;78.50
11448;BME280;43755;49.736;8.734;2022-07-09T07:39:06;98908.16;;;20.80;83.14
11448;BME280;43755;49.736;8.734;2022-07-09T07:41:08;98914.84;;;21.00;82.05
11448;BME280;43755;49.736;8.734;2022-07-09T07:43:10;98912.38;;;21.22;76.15
11448;BME280;43755;49.736;8.734;2022-07-09T07:45:12;98913.03;;;21.26;75.74
11448;BME280;43755;49.736;8.734;2022-07-09T07:47:13;98915.28;;;21.32;79.74
11448;BME280;43755;49.736;8.734;2022-07-09T07:49:15;98919.28;;;21.26;76.16
11448;BME280;43755;49.736;8.734;2022-07-09T07:51:17;98916.56;;;21.13;79.49
11448;BME280;43755;49.736;8.734;2022-07-09T07:53:19;98918.84;;;21.32;78.21
11448;BME280;43755;49.736;8.734;2022-07-09T07:55:20;98911.66;;;21.56;74.31
11448;BME280;43755;49.736;8.734;2022-07-09T07:57:22;98910.41;;;21.49;73.58
11448;BME280;43755;49.736;8.734;2022-07-09T07:59:24;98917.19;;;21.42;74.09
11448;BME280;43755;49.736;8.734;2022-07-09T08:01:25;98913.47;;;21.56;72.86
11448;BME280;43755;49.736;8.734;2022-07-09T08:03:27;98909.31;;;21.52;71.78
11448;BME280;43755;49.736;8.734;2022-07-09T08:05:28;98901.88;;;21.55;73.32
11448;BME280;43755;49.736;8.734;2022-07-09T08:07:31;98912.19;;;21.61;75.61
11448;BME280;43755;49.736;8.734;2022-07-09T08:09:32;98915.41;;;21.67;70.46
11448;BME280;43755;49.736;8.734;2022-07-09T08:11:34;98915.72;;;21.62;70.75
11448;BME280;43755;49.736;8.734;2022-07-09T08:13:35;98913.03;;;21.62;73.16
11448;BME280;43755;49.736;8.734;2022-07-09T08:15:37;98912.84;;;21.52;73.23
11448;BME280;43755;49.736;8.734;2022-07-09T08:17:38;98911.53;;;21.58;75.08
11448;BME280;43755;49.736;8.734;2022-07-09T08:19:41;98909.81;;;21.57;76.35
11448;BME280;43755;49.736;8.734;2022-07-09T08:21:42;98912.03;;;21.76;74.33
11448;BME280;43755;49.736;8.734;2022-07-09T08:23:45;98898.28;;;21.91;72.23
11448;BME280;43755;49.736;8.734;2022-07-09T08:25:54;98895.66;;;21.79;71.28
11448;BME280;43755;49.736;8.734;2022-07-09T08:27:55;98900.50;;;21.74;71.06
11448;BME280;43755;49.736;8.734;2022-07-09T08:29:57;98896.84;;;21.75;71.66
11448;BME280;43755;49.736;8.734;2022-07-09T08:31:58;98895.81;;;21.64;73.61
11448;BME280;43755;49.736;8.734;2022-07-09T08:33:59;98889.78;;;21.61;74.25
11448;BME280;43755;49.736;8.734;2022-07-09T08:36:01;98893.63;;;21.70;70.66
11448;BME280;43755;49.736;8.734;2022-07-09T08:38:02;98897.13;;;21.59;73.78
11448;BME280;43755;49.736;8.734;2022-07-09T08:40:06;98893.41;;;21.73;73.98
11448;BME280;43755;49.736;8.734;2022-07-09T08:42:09;98892.91;;;21.68;70.41
11448;BME280;43755;49.736;8.734;2022-07-09T08:44:11;98888.34;;;21.92;71.27
11448;BME280;43755;49.736;8.734;2022-07-09T08:46:13;98889.53;;;22.00;69.63
11448;BME280;43755;49.736;8.734;2022-07-09T08:48:14;98885.28;;;21.61;71.01
11448;BME280;43755;49.736;8.734;2022-07-09T08:50:16;98881.59;;;21.62;70.62
11448;BME280;43755;49.736;8.734;2022-07-09T08:52:17;98888.31;;;21.81;75.19
11448;BME280;43755;49.736;8.734;2022-07-09T08:54:20;98886.75;;;22.02;71.17
11448;BME280;43755;49.736;8.734;2022-07-09T08:56:23;98887.59;;;22.02;70.52
11448;BME280;43755;49.736;8.734;2022-07-09T08:58:25;98885.41;;;22.08;66.49
11448;BME280;43755;49.736;8.734;2022-07-09T09:00:26;98884.28;;;22.34;68.67
11448;BME280;43755;49.736;8.734;2022-07-09T09:02:33;98878.41;;;22.40;69.08
11448;BME280;43755;49.736;8.734;2022-07-09T09:04:35;98884.75;;;22.28;67.10
11448;BME280;43755;49.736;8.734;2022-07-09T09:06:40;98886.31;;;22.19;64.63
11448;BME280;43755;49.736;8.734;2022-07-09T09:08:43;98885.38;;;22.31;65.24
11448;BME280;43755;49.736;8.734;2022-07-09T09:10:45;98873.53;;;22.10;64.94
11448;BME280;43755;49.736;8.734;2022-07-09T09:12:48;98882.66;;;22.20;66.03
11448;BME280;43755;49.736;8.734;2022-07-09T09:14:50;98880.25;;;22.04;67.94
11448;BME280;43755;49.736;8.734;2022-07-09T09:16:51;98882.84;;;22.06;65.39
11448;BME280;43755;49.736;8.734;2022-07-09T09:18:53;98874.50;;;21.85;70.06
11448;BME280;43755;49.736;8.734;2022-07-09T09:20:54;98876.50;;;21.71;70.99
11448;BME280;43755;49.736;8.734;2022-07-09T09:22:55;98872.91;;;21.46;68.10
11448;BME280;43755;49.736;8.734;2022-07-09T09:25:02;98871.06;;;21.59;70.64
11448;BME280;43755;49.736;8.734;2022-07-09T09:27:05;98875.69;;;21.81;71.77
11448;BME280;43755;49.736;8.734;2022-07-09T09:29:09;98870.34;;;21.92;67.54
11448;BME280;43755;49.736;8.734;2022-07-09T09:31:20;98876.94;;;22.01;66.59
11448;BME280;43755;49.736;8.734;2022-07-09T09:33:22;98876.09;;;21.88;70.39
11448;BME280;43755;49.736;8.734;2022-07-09T09:35:25;98878.00;;;21.98;68.13
11448;BME280;43755;49.736;8.734;2022-07-09T09:37:27;98868.63;;;21.91;66.12
11448;BME280;43755;49.736;8.734;2022-07-09T09:39:29;98878.66;;;21.42;68.60
11448;BME280;43755;49.736;8.734;2022-07-09T09:41:30;98877.78;;;21.41;69.79
11448;BME280;43755;49.736;8.734;2022-07-09T09:43:35;98878.38;;;21.57;70.35
11448;BME280;43755;49.736;8.734;2022-07-09T09:45:39;98869.28;;;21.71;69.71
11448;BME280;43755;49.736;8.734;2022-07-09T09:47:45;98870.25;;;21.70;70.62
11448;BME280;43755;49.736;8.734;2022-07-09T09:49:48;98870.66;;;21.77;68.14
11448;BME280;43755;49.736;8.734;2022-07-09T09:51:55;98861.88;;;21.38;70.09
11448;BME280;43755;49.736;8.734;2022-07-09T09:53:58;98864.69;;;21.60;71.43
11448;BME280;43755;49.736;8.734;2022-07-09T09:56:00;98861.56;;;21.90;68.12
11448;BME280;43755;49.736;8.734;2022-07-09T09:58:02;98861.78;;;22.11;68.05
11448;BME280;43755;49.736;8.734;2022-07-09T10:00:04;98855.47;;;22.23;66.69
11448;BME280;43755;49.736;8.734;2022-07-09T10:02:09;98853.47;;;22.14;66.80
11448;BME280;43755;49.736;8.734;2022-07-09T10:04:12;98847.84;;;22.17;65.53
11448;BME280;43755;49.736;8.734;2022-07-09T10:06:15;98850.47;;;22.41;67.45
11448;BME280;43755;49.736;8.734;2022-07-09T10:08:16;98845.53;;;22.81;67.49
11448;BME280;43755;49.736;8.734;2022-07-09T10:10:19;98846.28;;;22.94;63.91
11448;BME280;43755;49.736;8.734;2022-07-09T10:12:25;98839.41;;;23.23;62.94
11448;BME280;43755;49.736;8.734;2022-07-09T10:14:31;98844.19;;;23.42;60.83
11448;BME280;43755;49.736;8.734;2022-07-09T10:16:35;98837.25;;;23.72;60.45
11448;BME280;43755;49.736;8.734;2022-07-09T10:18:49;98834.22;;;23.97;56.27
11448;BME280;43755;49.736;8.734;2022-07-09T10:20:55;98834.97;;;23.56;55.47
11448;BME280;43755;49.736;8.734;2022-07-09T10:22:56;98828.09;;;23.52;58.80
11448;BME280;43755;49.736;8.734;2022-07-09T10:24:58;98841.00;;;23.37;58.10
11448;BME280;43755;49.736;8.734;2022-07-09T10:27:04;98841.38;;;22.99;61.07
11448;BME280;43755;49.736;8.734;2022-07-09T10:29:18;98851.31;;;22.30;63.70
11448;BME280;43755;49.736;8.734;2022-07-09T10:31:20;98847.84;;;21.93;64.45
11448;BME280;43755;49.736;8.734;2022-07-09T10:33:32;98845.97;;;21.83;64.57
11448;BME280;43755;49.736;8.734;2022-07-09T10:35:43;98837.66;;;22.21;62.94
11448;BME280;43755;49.736;8.734;2022-07-09T10:37:45;98844.09;;;22.31;63.14
11448;BME280;43755;49.736;8.734;2022-07-09T10:39:53;98845.47;;;22.36;62.92
11448;BME280;43755;49.736;8.734;2022-07-09T10:41:59;98835.09;;;22.65;62.46